createdAt,value
2023-05-22T00:00:13.528Z,14.00
2023-05-22T00:02:43.634Z,13.90
2023-05-22T00:05:18.586Z,13.80
2023-05-22T00:07:49.152Z,13.90
2023-05-22T00:10:17.472Z,13.80
2023-05-22T00:12:46.748Z,13.80
2023-05-22T00:15:15.467Z,13.80
2023-05-22T00:17:44.538Z,13.80
2023-05-22T00:20:13.595Z,13.70
2023-05-22T00:22:54.692Z,13.70
2023-05-22T00:25:22.898Z,13.70
2023-05-22T00:27:51.293Z,13.60
2023-05-22T00:30:19.615Z,13.60
2023-05-22T00:32:50.097Z,13.50
2023-05-22T00:35:18.487Z,13.50
2023-05-22T00:37:48.211Z,13.40
2023-05-22T00:40:16.758Z,13.40
2023-05-22T00:42:46.374Z,13.40
2023-05-22T00:45:15.758Z,13.30
2023-05-22T00:47:46.510Z,13.30
2023-05-22T00:50:19.548Z,13.30
2023-05-22T00:52:49.149Z,13.30
2023-05-22T00:55:17.974Z,13.20
2023-05-22T00:57:47.111Z,13.20
2023-05-22T01:00:16.960Z,13.10
2023-05-22T01:02:48.403Z,13.10
2023-05-22T01:05:18.421Z,13.10
2023-05-22T01:07:50.283Z,13.00
2023-05-22T01:10:22.208Z,13.00
2023-05-22T01:13:02.097Z,13.00
2023-05-22T01:15:37.165Z,13.00
2023-05-22T01:18:21.661Z,12.90
2023-05-22T01:20:58.570Z,12.90
2023-05-22T01:24:00.438Z,12.90
2023-05-22T01:27:04.898Z,12.80
2023-05-22T01:29:46.324Z,12.80
2023-05-22T01:32:21.423Z,12.80
2023-05-22T01:34:55.510Z,12.80
2023-05-22T01:37:29.890Z,12.70
2023-05-22T01:39:58.987Z,12.70
2023-05-22T01:42:27.627Z,12.70
2023-05-22T01:44:55.952Z,12.70
2023-05-22T01:47:27.370Z,12.70
2023-05-22T01:49:55.925Z,12.60
2023-05-22T01:52:37.291Z,12.60
2023-05-22T01:55:14.582Z,12.60
2023-05-22T01:57:54.374Z,12.60
2023-05-22T02:00:23.506Z,12.50
2023-05-22T02:02:59.542Z,12.50
2023-05-22T02:05:35.711Z,12.40
2023-05-22T02:08:05.652Z,12.50
2023-05-22T02:10:36.479Z,12.40
2023-05-22T02:13:05.484Z,12.40
2023-05-22T02:15:34.413Z,12.40
2023-05-22T02:18:04.229Z,12.40
2023-05-22T02:20:32.527Z,12.40
2023-05-22T02:23:00.800Z,12.40
2023-05-22T02:25:31.228Z,12.30
2023-05-22T02:28:00.205Z,12.30
2023-05-22T02:30:28.527Z,12.30
2023-05-22T02:33:00.309Z,12.30
2023-05-22T02:35:34.266Z,12.30
2023-05-22T02:38:02.704Z,12.20
2023-05-22T02:40:34.026Z,12.20
2023-05-22T02:43:02.417Z,12.20
2023-05-22T02:45:30.978Z,12.20
2023-05-22T02:48:12.321Z,12.20
2023-05-22T02:50:45.261Z,12.10
2023-05-22T02:53:19.643Z,12.20
2023-05-22T02:55:48.543Z,12.20
2023-05-22T02:58:18.040Z,12.20
2023-05-22T03:00:46.558Z,12.20
2023-05-22T03:03:18.656Z,12.20
2023-05-22T03:05:48.445Z,12.20
2023-05-22T03:08:16.848Z,12.20
2023-05-22T03:10:45.065Z,12.20
2023-05-22T03:13:15.823Z,12.20
2023-05-22T03:15:44.233Z,12.30
2023-05-22T03:18:16.312Z,12.30
2023-05-22T03:20:45.495Z,12.40
2023-05-22T03:23:20.823Z,12.40
2023-05-22T03:25:49.348Z,12.40
2023-05-22T03:28:17.689Z,12.40
2023-05-22T03:30:47.938Z,12.40
2023-05-22T03:33:23.808Z,12.40
2023-05-22T03:35:58.028Z,12.40
2023-05-22T03:38:32.517Z,12.50
2023-05-22T03:41:00.692Z,12.50
2023-05-22T03:43:35.170Z,12.60
2023-05-22T03:46:05.996Z,12.60
2023-05-22T03:48:35.038Z,12.60
2023-05-22T03:51:03.290Z,12.70
2023-05-22T03:53:32.882Z,12.80
2023-05-22T03:56:01.127Z,12.80
2023-05-22T03:58:31.996Z,12.90
2023-05-22T04:01:02.250Z,13.00
2023-05-22T04:03:30.605Z,13.00
2023-05-22T04:05:59.063Z,13.00
2023-05-22T04:08:27.440Z,13.10
2023-05-22T04:11:00.004Z,13.20
2023-05-22T04:13:36.397Z,13.30
2023-05-22T04:16:10.982Z,13.40
2023-05-22T04:18:39.253Z,13.50
2023-05-22T04:21:10.570Z,13.50
2023-05-22T04:23:43.398Z,13.60
2023-05-22T04:26:13.365Z,13.70
2023-05-22T04:28:46.277Z,13.70
2023-05-22T04:31:14.806Z,13.80
2023-05-22T04:34:07.852Z,13.90
2023-05-22T04:36:36.143Z,14.10
2023-05-22T04:39:05.075Z,14.20
2023-05-22T04:41:34.648Z,14.30
2023-05-22T04:44:05.723Z,14.40
2023-05-22T04:46:34.520Z,14.50
2023-05-22T04:49:18.904Z,14.50
2023-05-22T04:51:47.182Z,14.70
2023-05-22T04:54:15.387Z,14.80
2023-05-22T04:56:47.267Z,15.00
2023-05-22T04:59:19.283Z,15.20
2023-05-22T05:01:47.962Z,15.50
2023-05-22T05:04:16.759Z,15.80
2023-05-22T05:06:45.178Z,16.20
2023-05-22T05:09:13.808Z,16.70
2023-05-22T05:11:44.453Z,17.30
2023-05-22T05:14:14.022Z,17.90
2023-05-22T05:16:42.365Z,18.70
2023-05-22T05:19:10.769Z,19.30
2023-05-22T05:21:39.580Z,19.90
2023-05-22T05:24:11.069Z,20.70
2023-05-22T05:26:39.453Z,21.40
2023-05-22T05:29:08.329Z,22.10
2023-05-22T05:31:47.335Z,22.90
2023-05-22T05:34:37.107Z,23.70
2023-05-22T05:37:09.062Z,24.50
2023-05-22T05:39:44.663Z,25.40
2023-05-22T05:42:15.989Z,26.10
2023-05-22T05:44:44.311Z,26.70
2023-05-22T05:47:15.058Z,27.20
2023-05-22T05:49:48.390Z,27.50
2023-05-22T05:52:17.514Z,27.90
2023-05-22T05:54:48.209Z,28.20
2023-05-22T05:57:22.737Z,28.20
2023-05-22T05:59:52.646Z,28.10
2023-05-22T06:02:50.659Z,28.20
2023-05-22T06:05:48.668Z,28.70
2023-05-22T06:08:28.701Z,29.40
2023-05-22T06:11:00.226Z,30.20
2023-05-22T06:13:36.585Z,31.00
2023-05-22T06:16:06.582Z,31.60
2023-05-22T06:18:53.888Z,32.30
2023-05-22T06:21:33.844Z,33.20
2023-05-22T06:24:04.342Z,33.70
2023-05-22T06:26:32.765Z,34.10
2023-05-22T06:29:00.952Z,34.60
2023-05-22T06:31:32.190Z,35.00
2023-05-22T06:34:01.856Z,35.50
2023-05-22T06:36:30.833Z,35.90
2023-05-22T06:38:59.799Z,36.30
2023-05-22T06:41:46.569Z,36.60
2023-05-22T06:44:15.710Z,37.10
2023-05-22T06:46:43.956Z,37.40
2023-05-22T06:49:20.903Z,37.60
2023-05-22T06:51:53.174Z,37.80
2023-05-22T06:54:22.399Z,37.80
2023-05-22T06:56:55.781Z,37.90
2023-05-22T06:59:26.371Z,38.00
2023-05-22T07:02:03.467Z,38.60
2023-05-22T07:04:52.476Z,39.10
2023-05-22T07:07:35.381Z,39.60
2023-05-22T07:10:04.227Z,39.90
2023-05-22T07:12:32.672Z,39.80
2023-05-22T07:15:01.762Z,39.70
2023-05-22T07:17:33.987Z,39.60
2023-05-22T07:20:06.939Z,39.10
2023-05-22T07:22:39.987Z,39.10
2023-05-22T07:25:08.958Z,39.30
2023-05-22T07:27:37.318Z,39.60
2023-05-22T07:30:06.649Z,39.80
2023-05-22T07:32:38.683Z,40.20
2023-05-22T07:35:11.921Z,40.50
2023-05-22T07:37:41.382Z,40.50
2023-05-22T07:40:12.482Z,40.70
2023-05-22T07:42:40.721Z,41.00
2023-05-22T07:45:12.252Z,41.30
2023-05-22T07:47:43.016Z,41.40
2023-05-22T07:50:13.095Z,41.50
2023-05-22T07:52:45.154Z,41.90
2023-05-22T07:55:13.447Z,42.10
2023-05-22T07:57:44.540Z,42.30
2023-05-22T08:00:22.124Z,42.30
2023-05-22T08:02:50.463Z,42.10
2023-05-22T08:05:20.185Z,41.20
2023-05-22T08:07:48.652Z,40.30
2023-05-22T08:10:18.883Z,39.60
2023-05-22T08:12:49.557Z,38.90
2023-05-22T08:15:17.746Z,38.70
2023-05-22T08:17:46.004Z,38.70
2023-05-22T08:20:14.686Z,38.80
2023-05-22T08:22:44.402Z,39.10
2023-05-22T08:25:12.707Z,39.50
2023-05-22T08:27:40.883Z,40.00
2023-05-22T08:30:10.100Z,40.50
2023-05-22T08:32:38.326Z,40.50
2023-05-22T08:35:07.321Z,40.30
2023-05-22T08:37:35.989Z,40.20
2023-05-22T08:40:06.638Z,39.90
2023-05-22T08:42:34.922Z,39.80
2023-05-22T08:45:03.395Z,39.60
2023-05-22T08:47:34.614Z,39.00
2023-05-22T08:50:03.267Z,38.00
2023-05-22T08:52:36.103Z,37.00
2023-05-22T08:55:06.960Z,36.00
2023-05-22T08:57:38.026Z,35.10
2023-05-22T09:00:07.934Z,34.30
2023-05-22T09:02:36.501Z,33.50
2023-05-22T09:05:06.059Z,32.80
2023-05-22T09:07:34.327Z,32.20
2023-05-22T09:10:05.452Z,31.50
2023-05-22T09:12:35.530Z,30.80
2023-05-22T09:15:11.362Z,30.20
2023-05-22T09:17:43.500Z,29.80
2023-05-22T09:20:15.820Z,29.60
2023-05-22T09:22:44.156Z,29.40
2023-05-22T09:25:20.020Z,29.10
2023-05-22T09:27:52.874Z,28.90
2023-05-22T09:30:21.557Z,28.70
2023-05-22T09:32:50.365Z,28.40
2023-05-22T09:35:20.256Z,28.10
2023-05-22T09:37:53.456Z,27.80
2023-05-22T09:40:30.330Z,27.60
2023-05-22T09:43:00.785Z,27.40
2023-05-22T09:45:36.030Z,27.30
2023-05-22T09:48:06.769Z,27.40
2023-05-22T09:50:35.046Z,27.90
2023-05-22T09:53:04.731Z,28.70
2023-05-22T09:55:34.830Z,29.40
2023-05-22T09:58:05.420Z,29.60
2023-05-22T10:00:36.692Z,29.70
2023-05-22T10:03:12.216Z,29.70
2023-05-22T10:05:52.446Z,29.50
2023-05-22T10:08:26.235Z,29.50
2023-05-22T10:10:58.606Z,29.50
2023-05-22T10:13:29.441Z,29.40
2023-05-22T10:15:58.681Z,29.10
2023-05-22T10:18:28.899Z,29.10
2023-05-22T10:20:58.603Z,28.90
2023-05-22T10:23:27.852Z,29.10
2023-05-22T10:25:57.039Z,29.50
2023-05-22T10:28:39.133Z,29.60
2023-05-22T10:31:15.818Z,29.70
2023-05-22T10:34:06.714Z,29.80
2023-05-22T10:36:48.151Z,29.90
2023-05-22T10:39:31.553Z,30.20
2023-05-22T10:42:01.012Z,30.30
2023-05-22T10:44:34.933Z,30.30
2023-05-22T10:47:11.675Z,30.00
2023-05-22T10:49:42.195Z,29.90
2023-05-22T10:52:11.446Z,29.70
2023-05-22T10:54:44.251Z,30.00
2023-05-22T10:57:16.063Z,30.30
2023-05-22T10:59:48.319Z,30.70
2023-05-22T11:02:29.560Z,30.70
2023-05-22T11:05:39.147Z,30.90
2023-05-22T11:08:28.965Z,31.40
2023-05-22T11:10:59.124Z,31.70
2023-05-22T11:13:29.591Z,32.00
2023-05-22T11:15:59.608Z,32.00
2023-05-22T11:18:30.594Z,31.90
2023-05-22T11:21:03.806Z,31.70
2023-05-22T11:23:36.701Z,31.70
2023-05-22T11:26:27.185Z,31.80
2023-05-22T11:29:00.763Z,31.70
2023-05-22T11:31:31.147Z,31.60
2023-05-22T11:33:59.474Z,31.50
2023-05-22T11:36:32.141Z,31.30
2023-05-22T11:39:01.711Z,31.30
2023-05-22T11:41:34.766Z,31.20
2023-05-22T11:44:03.345Z,31.10
2023-05-22T11:46:35.576Z,30.80
2023-05-22T11:49:04.263Z,30.50
2023-05-22T11:51:35.324Z,30.30
2023-05-22T11:54:03.596Z,30.20
2023-05-22T11:56:31.952Z,30.30
2023-05-22T11:59:00.360Z,30.50
2023-05-22T12:01:50.267Z,30.50
2023-05-22T12:04:18.886Z,30.30
2023-05-22T12:06:47.847Z,30.30
2023-05-22T12:09:18.589Z,30.40
2023-05-22T12:11:57.941Z,30.30
2023-05-22T12:14:42.191Z,30.30
2023-05-22T12:17:18.850Z,30.30
2023-05-22T12:19:48.412Z,30.30
2023-05-22T12:22:23.459Z,30.00
2023-05-22T12:24:58.200Z,29.80
2023-05-22T12:27:33.374Z,29.60
2023-05-22T12:30:18.130Z,29.50
2023-05-22T12:32:54.199Z,29.40
2023-05-22T12:35:23.542Z,29.10
2023-05-22T12:37:52.457Z,28.90
2023-05-22T12:40:22.310Z,28.60
2023-05-22T12:42:50.826Z,28.50
2023-05-22T12:45:27.911Z,28.50
2023-05-22T12:47:57.595Z,28.50
2023-05-22T12:50:25.978Z,28.40
2023-05-22T12:52:56.768Z,28.40
2023-05-22T12:55:25.073Z,28.40
2023-05-22T12:57:53.333Z,28.30
2023-05-22T13:00:22.045Z,28.20
2023-05-22T13:02:50.561Z,28.10
2023-05-22T13:05:22.826Z,28.00
2023-05-22T13:07:51.514Z,27.80
2023-05-22T13:10:20.217Z,27.70
2023-05-22T13:12:51.242Z,27.60
2023-05-22T13:15:19.691Z,27.50
2023-05-22T13:17:48.055Z,27.40
2023-05-22T13:20:16.410Z,27.30
2023-05-22T13:22:46.096Z,27.10
2023-05-22T13:25:14.505Z,27.10
2023-05-22T13:27:45.271Z,27.10
2023-05-22T13:30:14.062Z,27.10
2023-05-22T13:32:42.327Z,27.10
2023-05-22T13:35:11.229Z,27.10
2023-05-22T13:37:39.765Z,27.10
2023-05-22T13:40:10.551Z,27.10
2023-05-22T13:42:39.876Z,27.10
2023-05-22T13:45:09.491Z,27.20
2023-05-22T13:47:37.863Z,27.20
2023-05-22T13:50:07.045Z,27.20
2023-05-22T13:52:35.714Z,27.20
2023-05-22T13:55:04.313Z,27.10
2023-05-22T13:57:34.452Z,27.00
2023-05-22T14:00:05.599Z,26.90
2023-05-22T14:02:50.818Z,26.90
2023-05-22T14:05:19.364Z,26.70
2023-05-22T14:07:47.801Z,26.60
2023-05-22T14:10:16.118Z,26.50
2023-05-22T14:12:45.804Z,26.40
2023-05-22T14:15:16.145Z,26.40
2023-05-22T14:17:44.714Z,26.30
2023-05-22T14:20:13.132Z,26.30
2023-05-22T14:22:55.977Z,26.30
2023-05-22T14:25:26.331Z,26.30
2023-05-22T14:27:56.023Z,26.20
2023-05-22T14:30:24.420Z,26.20
2023-05-22T14:32:52.776Z,26.00
2023-05-22T14:35:21.049Z,26.00
2023-05-22T14:37:49.387Z,26.00
2023-05-22T14:40:17.733Z,26.00
2023-05-22T14:42:46.078Z,26.00
2023-05-22T14:45:16.118Z,26.00
2023-05-22T14:47:45.231Z,26.00
2023-05-22T14:50:19.056Z,25.90
2023-05-22T14:52:49.228Z,25.90
2023-05-22T14:55:18.285Z,25.70
2023-05-22T14:57:46.544Z,25.60
2023-05-22T15:00:17.357Z,25.50
2023-05-22T15:02:45.639Z,25.50
2023-05-22T15:05:13.993Z,25.40
2023-05-22T15:07:45.274Z,25.40
2023-05-22T15:10:14.105Z,25.40
2023-05-22T15:12:42.468Z,25.40
2023-05-22T15:15:11.327Z,25.40
2023-05-22T15:17:42.776Z,25.40
2023-05-22T15:20:12.507Z,25.40
2023-05-22T15:22:41.028Z,25.50
2023-05-22T15:25:15.960Z,25.50
2023-05-22T15:27:44.431Z,25.50
2023-05-22T15:30:13.183Z,25.50
2023-05-22T15:32:42.900Z,25.50
2023-05-22T15:35:13.975Z,25.40
2023-05-22T15:37:42.252Z,25.40
2023-05-22T15:40:12.515Z,25.30
2023-05-22T15:42:40.802Z,25.30
2023-05-22T15:45:10.239Z,25.20
2023-05-22T15:47:38.483Z,25.10
2023-05-22T15:50:08.801Z,25.00
2023-05-22T15:52:37.060Z,25.00
2023-05-22T15:55:05.850Z,24.90
2023-05-22T15:57:34.765Z,24.80
2023-05-22T16:00:03.138Z,24.80
2023-05-22T16:02:32.618Z,24.80
2023-05-22T16:05:00.935Z,24.80
2023-05-22T16:07:30.501Z,24.80
2023-05-22T16:09:58.720Z,24.80
2023-05-22T16:12:27.018Z,24.80
2023-05-22T16:15:00.413Z,24.70
2023-05-22T16:17:29.226Z,24.70
2023-05-22T16:19:57.551Z,24.70
2023-05-22T16:22:30.478Z,24.70
2023-05-22T16:25:07.355Z,24.70
2023-05-22T16:27:35.645Z,24.70
2023-05-22T16:30:04.512Z,24.60
2023-05-22T16:32:32.968Z,24.50
2023-05-22T16:35:01.384Z,24.30
2023-05-22T16:37:29.653Z,24.30
2023-05-22T16:40:00.419Z,24.10
2023-05-22T16:42:29.959Z,24.00
2023-05-22T16:44:58.182Z,23.90
2023-05-22T16:47:26.860Z,23.90
2023-05-22T16:49:55.192Z,23.80
2023-05-22T16:52:23.655Z,23.70
2023-05-22T16:54:51.845Z,23.60
2023-05-22T16:57:20.594Z,23.60
2023-05-22T16:59:50.486Z,23.50
2023-05-22T17:02:19.062Z,23.40
2023-05-22T17:04:47.476Z,23.40
2023-05-22T17:07:15.788Z,23.30
2023-05-22T17:09:44.026Z,23.20
2023-05-22T17:12:12.305Z,23.10
2023-05-22T17:14:40.558Z,23.10
2023-05-22T17:17:10.111Z,23.00
2023-05-22T17:19:38.918Z,22.90
2023-05-22T17:22:09.918Z,22.80
2023-05-22T17:24:40.164Z,22.80
2023-05-22T17:27:12.731Z,22.70
2023-05-22T17:29:45.377Z,22.60
2023-05-22T17:32:15.647Z,22.50
2023-05-22T17:34:44.075Z,22.50
2023-05-22T17:37:12.371Z,22.40
2023-05-22T17:39:40.663Z,22.40
2023-05-22T17:42:09.364Z,22.30
2023-05-22T17:44:37.772Z,22.20
2023-05-22T17:47:07.619Z,22.10
2023-05-22T17:49:43.390Z,22.00
2023-05-22T17:52:13.040Z,22.00
2023-05-22T17:54:41.306Z,21.90
2023-05-22T17:57:11.197Z,21.80
2023-05-22T17:59:40.563Z,21.80
2023-05-22T18:02:12.548Z,21.70
2023-05-22T18:04:49.135Z,21.60
2023-05-22T18:07:18.067Z,21.60
2023-05-22T18:09:46.286Z,21.50
2023-05-22T18:12:27.925Z,21.50
2023-05-22T18:14:59.966Z,21.40
2023-05-22T18:17:30.059Z,21.30
2023-05-22T18:20:00.614Z,21.20
2023-05-22T18:22:31.985Z,21.10
2023-05-22T18:25:00.289Z,21.00
2023-05-22T18:27:28.796Z,21.00
2023-05-22T18:29:56.975Z,20.90
2023-05-22T18:32:25.670Z,20.80
2023-05-22T18:34:58.612Z,20.70
2023-05-22T18:37:28.512Z,20.60
2023-05-22T18:39:56.845Z,20.50
2023-05-22T18:42:25.246Z,20.30
2023-05-22T18:44:53.548Z,20.20
2023-05-22T18:47:21.808Z,20.10
2023-05-22T18:49:50.089Z,19.90
2023-05-22T18:52:18.340Z,19.80
2023-05-22T18:54:47.976Z,19.70
2023-05-22T18:57:16.311Z,19.60
2023-05-22T18:59:46.237Z,19.40
2023-05-22T19:02:16.546Z,19.30
2023-05-22T19:04:44.838Z,19.20
2023-05-22T19:07:21.331Z,19.10
2023-05-22T19:09:51.457Z,19.00
2023-05-22T19:12:27.336Z,18.90
2023-05-22T19:14:58.416Z,18.70
2023-05-22T19:17:28.970Z,18.70
2023-05-22T19:19:57.167Z,18.50
2023-05-22T19:22:25.442Z,18.40
2023-05-22T19:25:21.183Z,18.30
2023-05-22T19:27:49.546Z,18.20
2023-05-22T19:30:19.016Z,18.00
2023-05-22T19:32:56.367Z,17.90
2023-05-22T19:35:24.640Z,17.90
2023-05-22T19:37:52.943Z,17.70
2023-05-22T19:40:28.722Z,17.70
2023-05-22T19:42:57.232Z,17.60
2023-05-22T19:45:25.998Z,17.50
2023-05-22T19:48:01.775Z,17.50
2023-05-22T19:50:35.525Z,17.40
2023-05-22T19:53:03.980Z,17.30
2023-05-22T19:55:43.874Z,17.20
2023-05-22T19:58:15.837Z,17.10
2023-05-22T20:00:44.275Z,17.00
2023-05-22T20:03:12.815Z,17.00
2023-05-22T20:05:42.716Z,16.90
2023-05-22T20:08:14.272Z,16.80
2023-05-22T20:10:47.553Z,16.80
2023-05-22T20:13:16.018Z,16.70
2023-05-22T20:15:47.831Z,16.70
2023-05-22T20:18:19.095Z,16.60
2023-05-22T20:20:47.362Z,16.60
2023-05-22T20:23:15.722Z,16.50
2023-05-22T20:25:45.642Z,16.50
2023-05-22T20:28:14.066Z,16.40
2023-05-22T20:30:42.334Z,16.40
2023-05-22T20:33:11.896Z,16.30
2023-05-22T20:35:40.794Z,16.30
2023-05-22T20:38:09.892Z,16.30
2023-05-22T20:40:38.329Z,16.30
2023-05-22T20:43:07.968Z,16.20
2023-05-22T20:45:37.588Z,16.20
2023-05-22T20:48:05.968Z,16.20
2023-05-22T20:50:39.733Z,16.20
2023-05-22T20:53:08.496Z,16.20
2023-05-22T20:55:37.166Z,16.20
2023-05-22T20:58:05.597Z,16.10
2023-05-22T21:00:35.348Z,16.10
2023-05-22T21:03:03.742Z,16.10
2023-05-22T21:05:32.044Z,16.00
2023-05-22T21:08:00.287Z,16.10
2023-05-22T21:10:28.480Z,16.10
2023-05-22T21:12:56.657Z,16.00
2023-05-22T21:15:24.919Z,16.00
2023-05-22T21:17:54.657Z,16.00
2023-05-22T21:20:23.035Z,16.00
2023-05-22T21:22:51.343Z,15.90
2023-05-22T21:25:22.693Z,15.90
2023-05-22T21:27:50.953Z,15.90
2023-05-22T21:30:19.576Z,15.80
2023-05-22T21:32:48.121Z,15.80
2023-05-22T21:35:17.937Z,15.70
2023-05-22T21:37:46.290Z,15.70
2023-05-22T21:40:14.871Z,15.70
2023-05-22T21:42:46.569Z,15.60
2023-05-22T21:45:15.992Z,15.50
2023-05-22T21:47:44.398Z,15.50
2023-05-22T21:50:15.171Z,15.50
2023-05-22T21:52:44.777Z,15.40
2023-05-22T21:55:13.156Z,15.40
2023-05-22T21:57:41.396Z,15.40
2023-05-22T22:00:10.723Z,15.30
2023-05-22T22:02:39.070Z,15.20
2023-05-22T22:05:08.006Z,15.20
2023-05-22T22:07:36.268Z,15.20
2023-05-22T22:10:06.836Z,15.10
2023-05-22T22:12:37.564Z,15.10
2023-05-22T22:15:06.613Z,15.00
2023-05-22T22:17:34.881Z,15.00
2023-05-22T22:20:03.298Z,14.90
2023-05-22T22:22:31.532Z,14.90
2023-05-22T22:25:03.191Z,14.90
2023-05-22T22:27:35.823Z,14.90
2023-05-22T22:30:04.930Z,14.90
2023-05-22T22:32:33.455Z,14.80
2023-05-22T22:35:01.772Z,14.80
2023-05-22T22:37:29.966Z,14.80
2023-05-22T22:39:58.292Z,14.70
2023-05-22T22:42:26.700Z,14.70
2023-05-22T22:44:56.273Z,14.60
2023-05-22T22:47:25.124Z,14.60
2023-05-22T22:49:53.758Z,14.60
2023-05-22T22:52:22.035Z,14.50
2023-05-22T22:54:50.356Z,14.50
2023-05-22T22:57:19.056Z,14.50
2023-05-22T22:59:47.328Z,14.50
2023-05-22T23:02:17.141Z,14.50
2023-05-22T23:04:45.654Z,14.50
2023-05-22T23:07:14.018Z,14.40
2023-05-22T23:09:42.334Z,14.40
2023-05-22T23:12:10.858Z,14.50
2023-05-22T23:14:39.109Z,14.50
2023-05-22T23:17:07.403Z,14.50
2023-05-22T23:19:36.915Z,14.40
2023-05-22T23:22:05.256Z,14.40
2023-05-22T23:24:33.509Z,14.40
2023-05-22T23:27:04.229Z,14.30
2023-05-22T23:29:32.529Z,14.30
2023-05-22T23:32:00.929Z,14.30
2023-05-22T23:34:29.322Z,14.30
2023-05-22T23:36:59.010Z,14.30
2023-05-22T23:39:27.493Z,14.20
2023-05-22T23:41:55.664Z,14.20
2023-05-22T23:44:26.081Z,14.20
2023-05-22T23:46:54.357Z,14.10
2023-05-22T23:49:22.771Z,14.10
2023-05-22T23:51:51.067Z,14.10
2023-05-22T23:54:20.897Z,14.10
2023-05-22T23:56:49.205Z,14.00
2023-05-22T23:59:17.507Z,14.00
